createdAt,value
2023-02-21T00:03:05.911Z,14.90
2023-02-21T00:08:28.712Z,14.33
2023-02-21T00:13:54.956Z,26.27
2023-02-21T00:19:17.320Z,22.00
2023-02-21T00:24:38.747Z,19.00
2023-02-21T00:29:59.196Z,20.13
2023-02-21T00:35:23.682Z,18.40
2023-02-21T00:40:44.319Z,19.27
2023-02-21T00:46:05.280Z,28.77
2023-02-21T00:51:28.926Z,19.93
2023-02-21T00:56:53.032Z,25.43
2023-02-21T01:02:13.176Z,21.67
2023-02-21T01:07:35.928Z,27.37
2023-02-21T01:13:00.966Z,23.63
2023-02-21T01:18:22.061Z,30.40
2023-02-21T01:23:42.136Z,25.83
2023-02-21T01:29:06.303Z,24.87
2023-02-21T01:34:26.632Z,28.33
2023-02-21T01:39:49.316Z,22.20
2023-02-21T01:45:55.767Z,26.43
2023-02-21T01:51:17.649Z,30.57
2023-02-21T01:56:37.972Z,21.50
2023-02-21T02:02:05.816Z,34.63
2023-02-21T02:07:28.732Z,31.63
2023-02-21T02:12:59.982Z,46.30
2023-02-21T02:18:28.715Z,32.80
2023-02-21T02:23:36.106Z,22.30
2023-02-21T02:29:16.550Z,33.17
2023-02-21T02:34:39.965Z,38.57
2023-02-21T02:40:24.723Z,26.33
2023-02-21T02:45:32.356Z,43.83
2023-02-21T02:50:36.720Z,32.60
2023-02-21T02:55:43.305Z,35.90
2023-02-21T03:00:57.679Z,29.03
2023-02-21T03:06:17.786Z,29.37
2023-02-21T03:11:25.603Z,41.87
2023-02-21T03:16:36.685Z,31.40
2023-02-21T03:21:45.307Z,29.50
2023-02-21T03:26:58.285Z,27.80
2023-02-21T03:32:36.353Z,11.43
2023-02-21T03:37:45.121Z,17.13
2023-02-21T03:42:48.962Z,19.23
2023-02-21T03:47:54.245Z,24.87
2023-02-21T03:52:58.625Z,22.77
2023-02-21T03:58:03.754Z,20.30
2023-02-21T04:03:07.668Z,17.67
2023-02-21T04:08:15.400Z,20.93
2023-02-21T04:13:19.493Z,25.30
2023-02-21T04:18:22.378Z,29.90
2023-02-21T04:23:28.421Z,30.13
2023-02-21T04:28:30.555Z,27.33
2023-02-21T04:33:32.371Z,24.50
2023-02-21T04:38:34.991Z,24.20
2023-02-21T04:43:36.779Z,14.00
2023-02-21T04:48:43.240Z,20.23
2023-02-21T04:53:47.469Z,20.23
2023-02-21T04:58:52.898Z,12.30
2023-02-21T05:03:59.418Z,15.20
2023-02-21T05:09:04.616Z,18.03
2023-02-21T05:14:12.281Z,12.20
2023-02-21T05:19:27.428Z,19.27
2023-02-21T05:24:31.143Z,14.80
2023-02-21T05:29:35.034Z,12.90
2023-02-21T05:34:37.072Z,19.93
2023-02-21T05:39:39.452Z,17.30
2023-02-21T05:44:46.535Z,18.43
2023-02-21T05:49:51.599Z,12.83
2023-02-21T05:54:56.042Z,14.90
2023-02-21T05:59:57.764Z,15.20
2023-02-21T06:05:05.485Z,7.73
2023-02-21T06:10:09.522Z,14.33
2023-02-21T06:15:16.858Z,14.77
2023-02-21T06:20:18.836Z,12.33
2023-02-21T06:25:25.453Z,15.10
2023-02-21T06:30:27.226Z,11.90
2023-02-21T06:35:29.876Z,10.57
2023-02-21T06:40:31.579Z,9.97
2023-02-21T06:45:35.763Z,16.80
2023-02-21T06:50:37.523Z,14.83
2023-02-21T06:55:39.293Z,16.27
2023-02-21T07:00:41.239Z,22.20
2023-02-21T07:05:43.997Z,21.27
2023-02-21T07:10:45.719Z,16.33
2023-02-21T07:15:47.750Z,11.03
2023-02-21T07:20:51.905Z,15.73
2023-02-21T07:25:53.562Z,16.37
2023-02-21T07:30:57.593Z,13.53
2023-02-21T07:36:04.764Z,15.63
2023-02-21T07:41:06.590Z,18.70
2023-02-21T07:46:15.084Z,14.43
2023-02-21T07:51:17.452Z,15.00
2023-02-21T07:56:22.397Z,18.93
2023-02-21T08:01:25.803Z,23.90
2023-02-21T08:06:27.506Z,24.60
2023-02-21T08:11:29.389Z,30.33
2023-02-21T08:16:36.169Z,38.07
2023-02-21T08:21:39.697Z,24.80
2023-02-21T08:26:45.500Z,25.07
2023-02-21T08:31:48.511Z,25.90
2023-02-21T08:36:50.787Z,30.13
2023-02-21T08:41:55.454Z,25.83
2023-02-21T08:46:59.490Z,21.20
2023-02-21T08:52:01.727Z,22.60
2023-02-21T08:57:04.593Z,26.33
2023-02-21T09:02:12.608Z,19.47
2023-02-21T09:07:15.885Z,31.50
2023-02-21T09:12:18.843Z,30.57
2023-02-21T09:17:24.071Z,29.63
2023-02-21T09:22:28.457Z,34.57
2023-02-21T09:27:37.527Z,32.97
2023-02-21T09:32:44.079Z,26.63
2023-02-21T09:37:48.887Z,34.80
2023-02-21T09:42:55.135Z,33.87
2023-02-21T09:47:59.705Z,40.90
2023-02-21T09:53:01.716Z,30.03
2023-02-21T09:58:03.571Z,40.97
2023-02-21T10:03:28.463Z,39.63
2023-02-21T10:08:38.428Z,33.63
2023-02-21T10:13:50.664Z,48.10
2023-02-21T10:19:19.330Z,39.23
2023-02-21T10:24:27.989Z,39.00
2023-02-21T10:29:56.346Z,42.37
2023-02-21T10:34:58.743Z,30.00
2023-02-21T10:40:18.725Z,35.23
2023-02-21T10:45:30.676Z,28.67
2023-02-21T10:50:51.510Z,34.07
2023-02-21T10:56:15.786Z,34.87
2023-02-21T11:01:33.204Z,39.53
2023-02-21T11:06:39.916Z,44.10
2023-02-21T11:11:50.452Z,36.50
2023-02-21T11:17:06.963Z,30.07
2023-02-21T11:22:12.721Z,38.40
2023-02-21T11:27:15.639Z,38.57
2023-02-21T11:32:24.538Z,34.33
2023-02-21T11:37:32.972Z,34.77
2023-02-21T11:42:38.001Z,35.40
2023-02-21T11:47:47.034Z,38.57
2023-02-21T11:53:04.654Z,37.90
2023-02-21T11:58:34.763Z,33.13
2023-02-21T12:04:04.662Z,35.13
2023-02-21T12:09:18.726Z,51.37
2023-02-21T12:14:46.387Z,34.27
2023-02-21T12:20:00.481Z,25.50
2023-02-21T12:25:25.912Z,24.47
2023-02-21T12:30:45.390Z,26.30
2023-02-21T12:36:15.540Z,24.43
2023-02-21T12:41:32.552Z,19.17
2023-02-21T12:46:43.324Z,18.83
2023-02-21T12:51:54.349Z,21.13
2023-02-21T12:57:04.516Z,24.37
2023-02-21T13:02:16.353Z,20.10
2023-02-21T13:07:32.722Z,23.63
2023-02-21T13:12:37.106Z,18.00
2023-02-21T13:17:42.320Z,23.67
2023-02-21T13:23:41.367Z,20.47
2023-02-21T13:28:46.686Z,17.13
2023-02-21T13:33:56.000Z,19.77
2023-02-21T13:39:38.320Z,19.73
2023-02-21T13:44:45.158Z,18.43
2023-02-21T13:49:55.094Z,22.90
2023-02-21T13:55:15.017Z,21.80
2023-02-21T14:00:27.632Z,21.77
2023-02-21T14:05:44.559Z,24.77
2023-02-21T14:11:03.245Z,19.42
2023-02-21T14:16:08.120Z,26.17
2023-02-21T14:21:15.762Z,21.00
2023-02-21T14:26:57.749Z,32.50
2023-02-21T14:32:04.795Z,26.53
2023-02-21T14:37:32.017Z,23.77
2023-02-21T14:42:45.070Z,25.88
2023-02-21T14:48:12.631Z,22.33
2023-02-21T14:53:17.556Z,18.70
2023-02-21T14:58:51.208Z,22.10
2023-02-21T15:04:05.906Z,18.93
2023-02-21T15:09:19.469Z,21.57
2023-02-21T15:14:24.220Z,21.70
2023-02-21T15:19:32.098Z,17.87
2023-02-21T15:24:37.356Z,19.57
2023-02-21T15:29:40.195Z,22.43
2023-02-21T15:34:46.216Z,21.57
2023-02-21T15:40:05.898Z,19.93
2023-02-21T15:45:14.113Z,23.67
2023-02-21T15:50:43.973Z,23.63
2023-02-21T15:55:46.910Z,16.27
2023-02-21T16:00:50.288Z,29.60
2023-02-21T16:05:55.727Z,19.93
2023-02-21T16:11:03.175Z,24.83
2023-02-21T16:16:05.917Z,22.52
2023-02-21T16:21:10.465Z,23.27
2023-02-21T16:26:16.742Z,21.67
2023-02-21T16:31:28.736Z,24.13
2023-02-21T16:36:35.188Z,21.90
2023-02-21T16:41:40.456Z,21.53
2023-02-21T16:46:46.098Z,27.60
2023-02-21T16:51:49.144Z,16.33
2023-02-21T16:56:52.552Z,27.30
2023-02-21T17:01:58.941Z,27.03
2023-02-21T17:07:04.336Z,23.97
2023-02-21T17:12:10.144Z,29.03
2023-02-21T17:17:12.668Z,28.97
2023-02-21T17:22:16.972Z,26.87
2023-02-21T17:27:21.478Z,31.87
2023-02-21T17:32:27.094Z,32.57
2023-02-21T17:37:33.415Z,31.67
2023-02-21T17:42:38.093Z,27.47
2023-02-21T17:47:41.064Z,32.13
2023-02-21T17:52:43.139Z,32.87
2023-02-21T17:57:45.064Z,32.47
2023-02-21T18:02:48.473Z,38.27
2023-02-21T18:07:53.448Z,33.37
2023-02-21T18:12:59.646Z,38.73
2023-02-21T18:18:07.873Z,27.87
2023-02-21T18:23:12.512Z,29.23
2023-02-21T18:28:16.480Z,35.73
2023-02-21T18:33:18.735Z,34.60
2023-02-21T18:38:22.295Z,36.13
2023-02-21T18:43:27.531Z,29.80
2023-02-21T18:48:29.280Z,33.93
2023-02-21T18:53:35.068Z,42.03
2023-02-21T18:58:40.748Z,35.60
2023-02-21T19:03:42.529Z,36.87
2023-02-21T19:08:49.378Z,42.20
2023-02-21T19:13:51.098Z,32.57
2023-02-21T19:18:57.731Z,30.63
2023-02-21T19:24:10.204Z,45.57
2023-02-21T19:29:11.961Z,38.27
2023-02-21T19:34:19.499Z,37.90
2023-02-21T19:39:26.883Z,34.83
2023-02-21T19:44:33.256Z,35.33
2023-02-21T19:49:34.988Z,37.10
2023-02-21T19:54:41.105Z,31.90
2023-02-21T19:59:43.046Z,40.10
2023-02-21T20:04:52.211Z,39.20
2023-02-21T20:09:57.400Z,39.60
2023-02-21T20:14:59.255Z,37.47
2023-02-21T20:20:01.261Z,48.27
2023-02-21T20:25:18.970Z,31.97
2023-02-21T20:30:42.041Z,39.17
2023-02-21T20:36:01.037Z,37.90
2023-02-21T20:41:25.404Z,34.93
2023-02-21T20:46:48.646Z,43.53
2023-02-21T20:58:13.937Z,40.07
2023-02-21T21:03:19.840Z,42.30
2023-02-21T21:08:22.116Z,46.40
2023-02-21T21:13:24.653Z,39.97
2023-02-21T21:18:27.100Z,38.00
2023-02-21T21:23:28.933Z,35.67
2023-02-21T21:28:36.455Z,42.13
2023-02-21T21:33:41.088Z,44.50
2023-02-21T21:38:43.193Z,46.43
2023-02-21T21:43:45.978Z,41.77
2023-02-21T21:48:47.960Z,38.17
2023-02-21T21:53:49.821Z,44.87
2023-02-21T21:58:51.563Z,42.47
2023-02-21T22:03:56.377Z,46.50
2023-02-21T22:09:00.369Z,40.20
2023-02-21T22:14:02.819Z,42.43
2023-02-21T22:19:07.605Z,37.30
2023-02-21T22:24:15.187Z,48.00
2023-02-21T22:29:19.517Z,53.97
2023-02-21T22:34:23.857Z,44.67
2023-02-21T22:39:26.992Z,44.10
2023-02-21T22:44:29.438Z,42.43
2023-02-21T22:49:34.569Z,55.93
2023-02-21T22:54:41.325Z,49.93
2023-02-21T22:59:43.687Z,56.17
2023-02-21T23:04:46.704Z,68.53
2023-02-21T23:09:48.579Z,62.10
2023-02-21T23:14:51.585Z,75.77
2023-02-21T23:19:53.365Z,76.23
2023-02-21T23:24:55.067Z,73.70
2023-02-21T23:30:00.694Z,73.73
2023-02-21T23:35:03.559Z,68.80
2023-02-21T23:40:16.375Z,69.73
2023-02-21T23:45:22.453Z,72.93
2023-02-21T23:50:30.538Z,74.93
2023-02-21T23:55:35.830Z,78.20
